»·PEaware :: SHOOT15 KEND-KWDG

SHOOT15 :: KEND-KWDG

FLIGHT INFORMATION

Flight Status: Arrived
Operator: Unknown
More flights by this operator :: More flights under this callsign
Pilot: Aaron P. (22162)
Aircraft: BEECH AIRCRAFT T-6A TEXAN
(TEX2)
More flights by this aircraft type
Origin: KEND Vance AFB
United States
Destination: KWDG Enid Woodring Regl
United States
More flights between these airports :: More routes between these airports
Route: +WDG DOG
File this flight plan on PilotEdge
Remarks:
Altitude:
(Current/Filed)
0ft
Speed:
(Current/Filed)
0kts
Departed: 11-Feb-19 09:52 AM
Arrived: 11-Feb-19 10:51 AM
Distance/Time
Traveled:
1nm/0:59
Distance/Time
To Go:
Arrived

Flight Plot

Page will automatically refresh every two minutes.

Flight plan parsing failed; only flown route is shown


Map Options




Map Legend


Flown Route
Filed Route
Departure Airport
Arrival Airport
Navaid (VOR, NDB)
Fix

Horizontal Profiles

Position Reports

Time Latitude Longitude Heading Altitude Ground
Speed
11-Feb-19 09:46 36.346952 -97.910228 220 1279ft 0kts
11-Feb-19 09:47 36.346949 -97.910231 220 1279ft 0kts
11-Feb-19 09:48 36.346941 -97.910240 221 1279ft 0kts
11-Feb-19 09:49 36.346941 -97.910240 221 1279ft 0kts
11-Feb-19 09:50 36.346715 -97.910915 231 1279ft 5kts
11-Feb-19 09:51 36.321433 -97.909623 171 1811ft 167kts
11-Feb-19 09:52 36.270846 -97.900072 157 4147ft 191kts
11-Feb-19 09:53 36.258492 -97.829891 79 5025ft 235kts
11-Feb-19 09:54 36.311934 -97.796011 2 5145ft 234kts
11-Feb-19 09:55 36.375714 -97.788334 4 5221ft 225kts
11-Feb-19 09:56 36.428585 -97.792380 1 3701ft 176kts
11-Feb-19 09:57 36.464701 -97.756072 42 3070ft 170kts
11-Feb-19 09:58 36.491959 -97.770211 246 3213ft 139kts
11-Feb-19 09:59 36.466163 -97.792174 185 2984ft 112kts
11-Feb-19 10:00 36.436064 -97.791904 183 1982ft 106kts
11-Feb-19 10:01 36.405316 -97.790925 181 1630ft 107kts
11-Feb-19 10:02 36.377570 -97.791127 179 1159ft 97kts
11-Feb-19 10:03 36.336525 -97.784624 165 2707ft 173kts
11-Feb-19 10:04 36.296649 -97.750082 80 3213ft 206kts
11-Feb-19 10:05 36.350469 -97.721099 10 3135ft 232kts
11-Feb-19 10:06 36.414279 -97.720647 350 3126ft 223kts
11-Feb-19 10:07 36.476606 -97.728081 351 3160ft 223kts
11-Feb-19 10:08 36.491250 -97.777149 232 3157ft 149kts
11-Feb-19 10:09 36.456193 -97.789793 196 3086ft 110kts
11-Feb-19 10:10 36.426440 -97.791918 174 2263ft 101kts
11-Feb-19 10:11 36.397060 -97.791044 182 1332ft 104kts
11-Feb-19 10:12 36.366790 -97.790373 175 1590ft 138kts
11-Feb-19 10:13 36.324823 -97.780471 176 4144ft 165kts
11-Feb-19 10:14 36.307506 -97.805376 317 5134ft 192kts
11-Feb-19 10:15 36.349608 -97.856220 309 5186ft 224kts
11-Feb-19 10:16 36.394413 -97.914243 318 5240ft 236kts
11-Feb-19 10:17 36.461165 -97.907622 2 5178ft 248kts
11-Feb-19 10:18 36.529564 -97.901964 3 5283ft 245kts
11-Feb-19 10:19 36.597577 -97.896637 4 5176ft 249kts
11-Feb-19 10:20 36.666399 -97.888899 0 5123ft 246kts
11-Feb-19 10:21 36.691691 -97.946108 268 3354ft 207kts
11-Feb-19 10:22 36.693378 -98.017465 269 2758ft 209kts
11-Feb-19 10:23 36.702015 -98.083148 322 2498ft 201kts
11-Feb-19 10:24 36.756604 -98.085543 21 2313ft 197kts
11-Feb-19 10:25 36.797759 -98.082279 270 1984ft 145kts
11-Feb-19 10:26 36.781592 -98.121707 178 2036ft 139kts
11-Feb-19 10:27 36.749940 -98.122946 182 1263ft 102kts
11-Feb-19 10:28 36.716722 -98.123214 172 1820ft 174kts
11-Feb-19 10:29 36.734282 -98.072732 357 2723ft 219kts
11-Feb-19 10:30 36.769370 -98.106120 272 4466ft 176kts
11-Feb-19 10:31 36.739942 -98.117609 129 3928ft 141kts
11-Feb-19 10:32 36.757292 -98.112644 247 2167ft 110kts
11-Feb-19 10:33 36.731057 -98.123458 182 1650ft 142kts
11-Feb-19 10:34 36.711800 -98.083073 88 2418ft 202kts
11-Feb-19 10:35 36.760392 -98.078903 310 4317ft 180kts
11-Feb-19 10:36 36.754621 -98.121842 220 4299ft 125kts
11-Feb-19 10:37 36.752440 -98.105258 309 2678ft 131kts
11-Feb-19 10:38 36.735098 -98.123604 181 1260ft 104kts
11-Feb-19 10:39 36.706018 -98.100035 88 1948ft 231kts
11-Feb-19 10:40 36.709397 -98.022414 85 4488ft 227kts
11-Feb-19 10:41 36.702127 -97.938818 146 4642ft 272kts
11-Feb-19 10:42 36.636522 -97.896629 154 4744ft 267kts
11-Feb-19 10:43 36.572465 -97.871748 186 3671ft 207kts
11-Feb-19 10:44 36.520129 -97.888341 206 3456ft 204kts
11-Feb-19 10:45 36.468718 -97.912600 194 3082ft 160kts
11-Feb-19 10:46 36.435572 -97.913552 186 2492ft 92kts
11-Feb-19 10:47 36.409796 -97.913983 179 2171ft 92kts
11-Feb-19 10:48 36.383044 -97.914469 184 1785ft 98kts
11-Feb-19 10:49 36.355243 -97.914712 179 1287ft 91kts
11-Feb-19 10:50 36.347754 -97.912184 131 1278ft 22kts
11-Feb-19 10:51 36.346947 -97.910068 227 1279ft 0kts

Navigation Log

Ident Type
Flight plan parsing failed, navigation log unavailable